Latest Coastal Weather Observations for Yanakie

IDV60701

Issued at 3:31 pm EDT Thursday 2 April 2015 (issued every 10 minutes, with the page automatically refreshed every 10 minutes)

About coastal observations | Map of coastal stations | Coastal observations for VIC | Marine services | Other Formats
Station Details ID: 085301 Name: YANAKIE Lat: -38.81 Lon: 146.19 Height: 13.3 m
Data from the previous 72 hours. | See also: Recent months at Yanakie
Date/Time
EDT
Temp

°C
Wind Pressure Rain
since 9am
mm
Weather Cloud Vis
km
Sea
Height
m
Swell
Dir
 
Speed
knots
Gust
knots
hPa Trend Height
m
Period
s
Dir
02/03:30pm 17.2 SW 19 26 1022.5 - 0.4 - - - - - - -
02/03:00pm 16.7 SW 20 27 1022.5 - 0.4 - - - - - - -
02/02:30pm 17.7 SW 21 28 1022.4 - 0.4 - - - - - - -
02/02:00pm 15.0 SW 21 28 1022.4 - 0.4 - - - - - - -
02/01:33pm 17.0 SW 22 32 1022.2 - 0.4 - - - - - - -
02/01:30pm 16.2 SW 24 32 1022.2 - 0.4 - - - - - - -
02/01:00pm 16.7 SW 25 33 1022.0 - 0.4 - - - - - - -
02/12:30pm 14.4 WSW 26 33 1021.8 - 0.4 - - - - - - -
02/12:00pm 14.6 WSW 24 31 1021.5 - 0.4 - - - - - - -
02/11:38am 13.6 SW 23 34 1021.4 - 0.4 - - - - - - -
02/11:30am 14.4 SW 25 34 1021.3 - 0.4 - - - - - - -
02/11:08am 14.5 WSW 22 34 1021.0 - 0.4 - - - - - - -
02/11:00am 13.7 WSW 22 30 1020.9 - 0.4 - - - - - - -
02/10:57am 13.8 SW 20 30 1020.9 - 0.4 - - - - - - -
02/10:30am 13.2 WSW 19 27 1020.6 - 0.4 - - - - - - -
02/10:15am 15.1 WSW 23 33 1020.4 - 0.0 - - - - - - -
02/10:00am 14.9 SW 24 32 1020.1 - 0.0 - - - - - - -
02/09:41am 13.0 WSW 24 35 1019.9 - 0.0 - - - - - - -
02/09:30am 14.2 WSW 23 33 1019.5 - 0.0 - - - - - - -
02/09:26am 14.6 WSW 22 33 1019.4 - 0.0 - - - - - - -
02/09:00am 14.8 WSW 23 31 1019.0 - 0.2 - - - - - - -
02/08:30am 14.0 WSW 21 31 1018.3 - 0.2 - - - - - - -
02/08:00am 12.9 W 21 34 1018.0 - 0.2 - - - - - - -
02/07:58am 13.2 W 20 34 1017.9 - 0.2 - - - - - - -
02/07:30am 12.3 WSW 20 27 1017.4 - 0.2 - - - - - - -
02/07:00am 13.9 W 19 25 1016.9 - 0.2 - - - - - - -
02/06:30am 13.7 W 19 24 1016.3 - 0.2 - - - - - - -
02/06:00am 14.1 W 17 24 1016.0 - 0.2 - - - - - - -
02/05:30am 14.2 WSW 18 24 1015.3 - 0.2 - - - - - - -
02/05:00am 13.7 WSW 19 29 1015.2 - 0.2 - - - - - - -
02/04:47am 13.7 WSW 18 28 1015.0 - 0.2 - - - - - - -
02/04:30am 13.9 W 19 26 1014.8 - 0.0 - - - - - - -
02/04:00am 14.4 WSW 16 23 1014.5 - 0.0 - - - - - - -
02/03:30am 14.9 W 19 31 1014.4 - 0.0 - - - - - - -
02/03:21am 15.0 WSW 18 28 1014.3 - 0.0 - - - - - - -
02/03:00am 15.7 W 17 24 1014.0 - 0.0 - - - - - - -
02/02:30am 16.2 WSW 18 28 1013.8 - 0.0 - - - - - - -
02/02:21am 16.5 WSW 18 28 1013.7 - 0.0 - - - - - - -
02/02:00am 18.0 W 14 17 1013.2 - 0.0 - - - - - - -
02/01:30am 18.2 W 16 21 1013.2 - 0.0 - - - - - - -
02/01:00am 18.2 WSW 14 20 1012.7 - 0.0 - - - - - - -
02/12:30am 18.6 WSW 15 20 1013.0 - 0.0 - - - - - - -
02/12:00am 19.0 WSW 15 20 1012.9 - 0.0 - - - - - - -
 
Date/Time
EDT
Temp

°C
Wind Pressure Rain
since 9am
mm
Weather Cloud Vis
km
Sea
Height
m
Swell
Dir
 
Speed
knots
Gust
knots
hPa Trend Height
m
Period
s
Dir
01/11:30pm 19.9 WSW 15 21 1012.4 - 0.0 - - - - - - -
01/11:00pm 22.4 NW 10 21 1012.0 - 0.0 - - - - - - -
01/10:30pm 22.9 N 6 9 1010.8 - 0.0 - - - - - - -
01/10:00pm 21.4 NNE 6 7 1011.1 - 0.0 - - - - - - -
01/09:30pm 22.3 NNE 6 7 1011.2 - 0.0 - - - - - - -
01/09:00pm 22.1 NNE 5 7 1011.5 - 0.0 - - - - - - -
01/08:30pm 22.4 NNE 4 6 1011.7 - 0.0 - - - - - - -
01/08:00pm 22.2 NNE 4 6 1011.8 - 0.0 - - - - - - -
01/07:30pm 22.1 NNE 3 5 1011.7 - 0.0 - - - - - - -
01/07:00pm 23.0 NNE 3 4 1011.8 - 0.0 - - - - - - -
01/06:30pm 24.3 N 3 5 1012.0 - 0.0 - - - - - - -
01/06:00pm 24.5 NNW 4 5 1012.2 - 0.0 - - - - - - -
01/05:30pm 25.4 NNW 6 8 1012.2 - 0.0 - - - - - - -
01/05:00pm 26.2 NNW 8 12 1012.2 - 0.0 - - - - - - -
01/04:30pm 26.8 NNW 9 14 1012.5 - 0.0 - - - - - - -
01/04:00pm 26.7 NNW 9 13 1012.7 - 0.0 - - - - - - -
01/03:30pm 27.0 NNW 12 17 1013.2 - 0.0 - - - - - - -
01/03:00pm 28.5 NW 14 20 1013.6 - 0.0 - - - - - - -
01/02:30pm 28.2 NNW 11 14 1014.2 - 0.0 - - - - - - -
01/02:00pm 28.8 NNW 12 17 1014.5 - 0.0 - - - - - - -
01/01:30pm 26.4 NNW 9 13 1015.0 - 0.0 - - - - - - -
01/01:00pm 26.2 NNW 10 14 1015.6 - 0.0 - - - - - - -
01/12:30pm 26.8 NNW 8 13 1016.1 - 0.0 - - - - - - -
01/12:00pm 26.1 N 6 10 1016.7 - 0.0 - - - - - - -
01/11:30am 22.8 NE 3 4 1017.2 - 0.0 - - - - - - -
01/11:00am 21.7 NE 3 4 1017.5 - 0.0 - - - - - - -
01/10:30am 20.0 ENE 4 5 1017.8 - 0.0 - - - - - - -
01/10:00am 19.9 NE 5 6 1018.1 - 0.0 - - - - - - -
01/09:30am 18.2 NE 5 7 1018.5 - 0.0 - - - - - - -
01/09:00am 15.8 NE 3 5 1018.6 - 0.0 - - - - - - -
01/08:30am 13.6 NNE 2 3 1018.7 - 0.0 - - - - - - -
01/08:00am 12.8 NE 3 4 1018.5 - 0.0 - - - - - - -
01/07:30am 10.7 CALM 0 0 1018.6 - 0.0 - - - - - - -
01/07:00am 10.3 CALM 0 0 1018.8 - 0.0 - - - - - - -
01/06:30am 10.5 CALM 0 0 1018.7 - 0.0 - - - - - - -
01/06:00am 12.9 NNE 3 4 1018.8 - 0.0 - - - - - - -
01/05:30am 12.6 NE 2 4 1018.8 - 0.0 - - - - - - -
01/05:00am 12.9 NE 3 4 1019.0 - 0.0 - - - - - - -
01/04:30am 13.2 NE 4 6 1019.1 - 0.0 - - - - - - -
01/04:00am 12.7 NE 3 4 1019.5 - 0.0 - - - - - - -
01/03:30am 13.3 NE 3 5 1019.8 - 0.0 - - - - - - -
01/03:00am 14.0 NNE 4 5 1020.2 - 0.0 - - - - - - -
01/02:30am 14.5 NNE 4 5 1020.8 - 0.0 - - - - - - -
01/02:00am 14.9 NE 3 4 1021.1 - 0.0 - - - - - - -
01/01:30am 15.6 ENE 5 6 1021.5 - 0.0 - - - - - - -
01/01:00am 16.2 ENE 8 10 1021.8 - 0.0 - - - - - - -
01/12:30am 16.1 ENE 5 7 1022.1 - 0.0 - - - - - - -
01/12:00am 16.2 ENE 6 9 1022.3 - 0.0 - - - - - - -
 
Date/Time
EDT
Temp

°C
Wind Pressure Rain
since 9am
mm
Weather Cloud Vis
km
Sea
Height
m
Swell
Dir
 
Speed
knots
Gust
knots
hPa Trend Height
m
Period
s
Dir
31/11:30pm 16.0 E 5 8 1022.6 - 0.0 - - - - - - -
31/11:00pm 16.2 ENE 8 10 1022.7 - 0.0 - - - - - - -
31/10:30pm 16.2 ENE 8 11 1023.0 - 0.0 - - - - - - -
31/10:00pm 16.3 ENE 7 10 1023.2 - 0.0 - - - - - - -
31/09:30pm 16.4 ENE 8 13 1023.3 - 0.0 - - - - - - -
31/09:00pm 16.5 ENE 9 13 1023.4 - 0.0 - - - - - - -
31/08:30pm 16.4 ENE 6 11 1023.4 - 0.0 - - - - - - -
31/08:00pm 16.6 E 7 11 1023.3 - 0.0 - - - - - - -
31/07:30pm 16.6 ENE 7 12 1023.0 - 0.0 - - - - - - -
31/07:00pm 17.3 E 5 9 1022.9 - 0.0 - - - - - - -
31/06:30pm 18.3 E 6 9 1023.0 - 0.0 - - - - - - -
31/06:00pm 19.3 E 6 9 1023.1 - 0.0 - - - - - - -
31/05:30pm 20.0 ENE 7 11 1023.0 - 0.0 - - - - - - -
31/05:00pm 20.9 ENE 6 9 1023.1 - 0.0 - - - - - - -
31/04:30pm 21.6 ENE 5 8 1023.3 - 0.0 - - - - - - -
31/04:00pm 22.3 S 6 9 1023.7 - 0.0 - - - - - - -
31/03:30pm 22.8 S 8 10 1023.6 - 0.0 - - - - - - -
31/03:00pm 23.3 SSW 8 10 1023.6 - 0.0 - - - - - - -
31/02:30pm 22.6 E 4 6 1023.9 - 0.0 - - - - - - -
31/02:00pm 21.6 E 5 6 1024.2 - 0.0 - - - - - - -
31/01:30pm 21.0 ENE 5 7 1024.7 - 0.0 - - - - - - -
31/01:00pm 20.2 ENE 5 7 1025.1 - 0.0 - - - - - - -
31/12:30pm 20.1 NE 5 7 1025.5 - 0.0 - - - - - - -
31/12:00pm 20.2 ENE 5 6 1026.0 - 0.0 - - - - - - -
31/11:30am 19.7 E 3 5 1026.7 - 0.0 - - - - - - -
31/11:00am 18.7 NE 2 4 1027.1 - 0.0 - - - - - - -
31/10:30am 16.6 NNE 1 2 1027.2 - 0.0 - - - - - - -
31/10:00am 15.3 NNE 2 3 1027.0 - 0.0 - - - - - - -
31/09:30am 14.2 CALM 0 0 1027.0 - 0.0 - - - - - - -
31/09:00am 13.1 CALM 0 0 1027.0 - 0.0 - - - - - - -
31/08:30am 10.1 CALM 0 0 1026.7 - 0.0 - - - - - - -
31/08:00am 7.4 CALM 0 0 1026.5 - 0.0 - - - - - - -
31/07:30am 7.4 CALM 0 0 1026.2 - 0.0 - - - - - - -
31/07:00am 7.7 NNE 1 2 1025.8 - 0.0 - - - - - - -
31/06:30am 6.4 CALM 0 0 1025.7 - 0.0 - - - - - - -
31/06:00am 7.0 CALM 0 0 1025.5 - 0.0 - - - - - - -
31/05:30am 7.7 NNE 1 1 1025.5 - 0.0 - - - - - - -
31/05:00am 7.8 CALM 0 0 1025.4 - 0.0 - - - - - - -
31/04:30am 8.6 ENE 2 2 1025.4 - 0.0 - - - - - - -
31/04:00am 9.4 WSW 1 3 1025.6 - 0.0 - - - - - - -
31/03:30am 10.3 WSW 1 1 1025.7 - 0.0 - - - - - - -
31/03:00am 9.3 W 2 2 1025.9 - 0.0 - - - - - - -
31/02:30am 9.9 CALM 0 1 1026.1 - 0.0 - - - - - - -
31/02:00am 9.3 CALM 0 0 1026.2 - 0.0 - - - - - - -
31/01:30am 9.7 CALM 0 0 1026.2 - 0.0 - - - - - - -
31/01:00am 11.3 N 1 2 1026.3 - 0.0 - - - - - - -
31/12:30am 10.7 N 1 1 1026.3 - 0.0 - - - - - - -
31/12:00am 10.5 N 2 3 1026.4 - 0.0 - - - - - - -
 
Date/Time
EDT
Temp

°C
Wind Pressure Rain
since 9am
mm
Weather Cloud Vis
km
Sea
Height
m
Swell
Dir
 
Speed
knots
Gust
knots
hPa Trend Height
m
Period
s
Dir
30/11:30pm 11.2 N 3 3 1026.5 - 0.0 - - - - - - -
30/11:00pm 11.7 N 3 3 1026.7 - 0.0 - - - - - - -
30/10:30pm 10.9 NNE 2 3 1026.6 - 0.0 - - - - - - -
30/10:00pm 11.9 NNW 2 2 1026.6 - 0.0 - - - - - - -
30/09:30pm 11.9 N 2 3 1026.4 - 0.0 - - - - - - -
30/09:00pm 12.2 WSW 3 4 1026.3 - 0.0 - - - - - - -
30/08:30pm 13.0 SW 2 3 1026.0 - 0.0 - - - - - - -
30/08:00pm 13.6 SW 3 4 1025.8 - 0.0 - - - - - - -
30/07:30pm 14.1 SW 4 4 1025.3 - 0.0 - - - - - - -
30/07:00pm 16.2 SW 6 7 1025.0 - 0.0 - - - - - - -
30/06:30pm 17.7 SW 8 11 1024.7 - 0.0 - - - - - - -
30/06:00pm 18.9 SW 9 12 1024.3 - 0.0 - - - - - - -
30/05:30pm 19.9 SW 9 10 1024.1 - 0.0 - - - - - - -
30/05:00pm 20.4 SW 10 13 1024.0 - 0.0 - - - - - - -
30/04:30pm 21.6 SW 9 12 1023.8 - 0.0 - - - - - - -
30/04:00pm 21.6 SW 10 12 1023.8 - 0.0 - - - - - - -

Other Formats:

Comma delimited format used in spreadsheet applications
http://www.bom.gov.au/fwo/IDV60701/IDV60701.94911.axf

JavaScript Object Notation format (JSON) in row-major order
http://www.bom.gov.au/fwo/IDV60701/IDV60701.94911.json